Time;durP1;ratioP1;P1;durP2;ratioP2;P2;SDS_P1;SDS_P2;PMS_P1;PMS_P2;Temp;Humidity;BMP_temperature;BMP_pressure;BME280_temperature;BME280_humidity;BME280_pressure;Samples;Min_cycle;Max_cycle;Signal;HPM_P1;HPM_P2
2024/01/19 00:00:09;;;;;;;;;;;1.10;99.90;;;;;;5033822;28;20016;-82
2024/01/19 00:02:34;;;;;;;;;;;-0.80;99.90;;;;;;5034241;28;20381;-83
2024/01/19 00:05:00;;;;;;;;;;;-0.80;99.90;;;;;;5033721;28;20450;-83
2024/01/19 00:07:25;;;;;;;;;;;0.20;99.90;;;;;;5027917;28;20297;-83
2024/01/19 00:09:51;;;;;;;;;;;1.10;99.90;;;;;;4998534;28;19925;-83
2024/01/19 00:12:16;;;;;;;;;;;1.00;99.90;;;;;;5029877;28;19928;-82
2024/01/19 00:14:42;;;;;;;;;;;-0.10;99.90;;;;;;5001717;28;19985;-83
2024/01/19 00:17:08;;;;;;;;;;;0.60;99.90;;;;;;5019335;28;19921;-83
2024/01/19 00:19:33;;;;;;;;;;;0.60;99.90;;;;;;5001694;28;19922;-83
2024/01/19 00:21:59;;;;;;;;;;;-0.50;99.90;;;;;;5011843;28;19921;-83
2024/01/19 00:24:24;;;;;;;;;;;1.70;99.90;;;;;;4998009;28;19925;-82
2024/01/19 00:26:50;;;;;;;;;;;0.80;99.90;;;;;;5020770;28;20327;-82
2024/01/19 00:29:17;;;;;;;;;;;-0.40;99.90;;;;;;5004590;28;20019;-83
2024/01/19 00:31:45;;;;;;;;;;;0.40;99.90;;;;;;5020423;28;20007;-83
2024/01/19 00:34:11;;;;;;;;;;;1.20;99.90;;;;;;5021905;28;19925;-82
2024/01/19 00:36:37;;;;;;;;;;;1.20;99.90;;;;;;5020880;28;19932;-83
2024/01/19 00:39:04;;;;;;;;;;;1.10;99.90;;;;;;5020488;28;19921;-82
2024/01/19 00:41:29;;;;;;;;;;;-0.80;99.90;;;;;;5020781;28;19944;-81
2024/01/19 00:43:55;;;;;;;;;;;-0.30;99.90;;;;;;5037315;28;20358;-82
2024/01/19 00:46:21;;;;;;;;;;;-0.20;99.90;;;;;;5003583;28;19925;-82
2024/01/19 00:48:47;;;;;;;;;;;-0.80;99.90;;;;;;5036770;28;20012;-82
2024/01/19 00:51:13;;;;;;;;;;;0.30;99.90;;;;;;5003952;28;20018;-82
2024/01/19 00:53:38;;;;;;;;;;;0.90;99.90;;;;;;5004283;28;19921;-83
2024/01/19 00:56:04;;;;;;;;;;;-0.90;99.90;;;;;;5031376;28;20400;-82
2024/01/19 00:58:29;;;;;;;;;;;-0.80;99.90;;;;;;5020518;28;19932;-82
2024/01/19 01:00:56;;;;;;;;;;;0.10;99.90;;;;;;5003430;28;19921;-82
2024/01/19 01:03:23;;;;;;;;;;;0.90;99.90;;;;;;5037272;28;20250;-83
2024/01/19 01:05:48;;;;;;;;;;;0.70;99.90;;;;;;5020225;28;19968;-83
2024/01/19 01:08:14;;;;;;;;;;;-0.70;99.90;;;;;;5003885;28;19960;-83
2024/01/19 01:10:39;;;;;;;;;;;1.60;99.90;;;;;;5035070;28;19926;-83
2024/01/19 01:13:05;;;;;;;;;;;0.50;99.90;;;;;;5002267;28;19928;-83
2024/01/19 01:15:31;;;;;;;;;;;-0.70;99.90;;;;;;5019961;28;20389;-83
2024/01/19 01:17:56;;;;;;;;;;;-0.60;99.90;;;;;;5036735;28;19925;-83
2024/01/19 01:20:22;;;;;;;;;;;-0.50;99.90;;;;;;5036311;28;20002;-83
2024/01/19 01:22:48;;;;;;;;;;;-0.60;99.90;;;;;;5036095;28;19929;-83
2024/01/19 01:25:13;;;;;;;;;;;-0.60;99.90;;;;;;5020512;28;19921;-83
2024/01/19 01:27:39;;;;;;;;;;;0.60;99.90;;;;;;5036418;28;19980;-83
2024/01/19 01:30:07;;;;;;;;;;;-0.60;99.90;;;;;;5035789;28;19971;-83
2024/01/19 01:32:33;;;;;;;;;;;-0.60;99.90;;;;;;5019512;28;19921;-83
2024/01/19 01:34:59;;;;;;;;;;;-0.60;99.90;;;;;;5019762;28;19967;-82
2024/01/19 01:37:24;;;;;;;;;;;-0.60;99.90;;;;;;5003107;28;19928;-83
2024/01/19 01:39:50;;;;;;;;;;;0.50;99.90;;;;;;5003991;28;19921;-83
2024/01/19 01:42:16;;;;;;;;;;;0.60;99.90;;;;;;5003294;28;19927;-83
2024/01/19 01:44:41;;;;;;;;;;;-0.80;99.90;;;;;;5004666;28;19975;-82
2024/01/19 01:47:07;;;;;;;;;;;-0.60;99.90;;;;;;5020183;28;19975;-82
2024/01/19 01:49:33;;;;;;;;;;;-0.80;99.90;;;;;;5003534;28;19968;-82
2024/01/19 01:51:58;;;;;;;;;;;0.10;99.90;;;;;;5003855;28;19971;-83
2024/01/19 01:54:25;;;;;;;;;;;-0.60;99.90;;;;;;5020062;28;19926;-83
2024/01/19 01:56:51;;;;;;;;;;;0.60;99.90;;;;;;5003208;28;20027;-83
2024/01/19 01:59:19;;;;;;;;;;;-0.70;99.90;;;;;;5019250;28;19978;-83
2024/01/19 02:01:45;;;;;;;;;;;0.40;99.90;;;;;;5022387;28;20011;-83
2024/01/19 02:04:11;;;;;;;;;;;-0.60;99.90;;;;;;5036087;28;19928;-83
2024/01/19 02:06:38;;;;;;;;;;;-0.70;99.90;;;;;;5056618;28;19994;-83
2024/01/19 02:09:05;;;;;;;;;;;0.30;99.90;;;;;;5039617;28;19974;-83
2024/01/19 02:11:31;;;;;;;;;;;-0.70;99.90;;;;;;5023059;28;19967;-83
2024/01/19 02:13:56;;;;;;;;;;;1.30;99.90;;;;;;5022915;28;19925;-83
2024/01/19 02:16:22;;;;;;;;;;;-0.50;99.90;;;;;;5039190;28;20015;-83
2024/01/19 02:18:48;;;;;;;;;;;0.40;99.90;;;;;;5004174;28;20289;-83
2024/01/19 02:21:13;;;;;;;;;;;0.10;99.90;;;;;;5035568;28;19925;-83
2024/01/19 02:23:44;;;;;;;;;;;0.90;99.90;;;;;;5002606;28;19971;-83
2024/01/19 02:26:10;;;;;;;;;;;-0.60;99.90;;;;;;5035080;28;19921;-82
2024/01/19 02:28:35;;;;;;;;;;;-0.50;99.90;;;;;;5002846;28;19927;-82
2024/01/19 02:31:01;;;;;;;;;;;0.80;99.90;;;;;;5035068;28;19925;-83
2024/01/19 02:33:26;;;;;;;;;;;0.70;99.90;;;;;;5002397;28;20368;-83
2024/01/19 02:35:52;;;;;;;;;;;-0.50;99.90;;;;;;5019054;28;19925;-83
2024/01/19 02:38:18;;;;;;;;;;;-0.60;99.90;;;;;;5002430;28;20298;-83
2024/01/19 02:40:43;;;;;;;;;;;-0.50;99.90;;;;;;5018497;28;19921;-83
2024/01/19 02:43:09;;;;;;;;;;;-0.60;99.90;;;;;;5018924;28;20373;-83
2024/01/19 02:45:34;;;;;;;;;;;-0.50;99.90;;;;;;5002474;28;19921;-82
2024/01/19 02:48:00;;;;;;;;;;;-0.50;99.90;;;;;;5034794;28;20404;-82
2024/01/19 02:50:25;;;;;;;;;;;-0.40;99.90;;;;;;5034657;28;19925;-82
2024/01/19 02:52:51;;;;;;;;;;;0.40;99.90;;;;;;5001140;28;19928;-82
2024/01/19 02:55:16;;;;;;;;;;;1.80;99.90;;;;;;5016743;28;20284;-83
2024/01/19 02:57:42;;;;;;;;;;;2.10;99.90;;;;;;5025700;22;19925;-83
2024/01/19 03:00:08;;;;;;;;;;;0.00;99.90;;;;;;5032056;28;20318;-83
2024/01/19 03:02:34;;;;;;;;;;;0.00;99.90;;;;;;4984015;28;19968;-83
2024/01/19 03:04:59;;;;;;;;;;;0.70;99.90;;;;;;5016368;28;19921;-83
2024/01/19 03:07:25;;;;;;;;;;;2.10;99.90;;;;;;4996137;28;20374;-83
2024/01/19 03:09:50;;;;;;;;;;;1.00;99.90;;;;;;5013618;28;19926;-83
2024/01/19 03:12:17;;;;;;;;;;;1.50;99.90;;;;;;5016906;28;19929;-83
2024/01/19 03:14:42;;;;;;;;;;;1.90;99.90;;;;;;5018463;28;19921;-83
2024/01/19 03:17:08;;;;;;;;;;;0.00;99.90;;;;;;5001464;28;19932;-82
2024/01/19 03:19:34;;;;;;;;;;;1.90;99.90;;;;;;5000434;28;19982;-83
2024/01/19 03:21:59;;;;;;;;;;;1.80;99.90;;;;;;5000264;28;19928;-83
2024/01/19 03:24:25;;;;;;;;;;;0.10;99.90;;;;;;5005498;28;20022;-83
2024/01/19 03:26:50;;;;;;;;;;;0.20;99.90;;;;;;4986104;28;19921;-83
2024/01/19 03:29:16;;;;;;;;;;;0.10;99.90;;;;;;4985012;28;20333;-83
2024/01/19 03:31:41;;;;;;;;;;;2.20;99.90;;;;;;5011410;28;19928;-83
2024/01/19 03:34:07;;;;;;;;;;;0.20;99.90;;;;;;4999538;28;20412;-83
2024/01/19 03:36:33;;;;;;;;;;;1.90;99.90;;;;;;4997212;28;19922;-83
2024/01/19 03:38:58;;;;;;;;;;;2.10;99.90;;;;;;4981959;28;19985;-83
2024/01/19 03:41:26;;;;;;;;;;;0.20;99.90;;;;;;4976422;28;20421;-83
2024/01/19 03:43:51;;;;;;;;;;;1.50;99.90;;;;;;4990302;28;20320;-83
2024/01/19 03:46:17;;;;;;;;;;;0.00;99.90;;;;;;4993989;28;19968;-83
2024/01/19 03:48:43;;;;;;;;;;;0.10;99.90;;;;;;4996631;28;20399;-83
2024/01/19 03:51:08;;;;;;;;;;;0.10;99.90;;;;;;4996771;28;20278;-83
2024/01/19 03:53:34;;;;;;;;;;;2.30;99.90;;;;;;4991881;28;19922;-83
2024/01/19 03:55:59;;;;;;;;;;;1.30;99.90;;;;;;4991145;28;19928;-83
2024/01/19 03:58:25;;;;;;;;;;;0.80;99.90;;;;;;5010634;28;19932;-83
2024/01/19 04:00:51;;;;;;;;;;;0.90;99.90;;;;;;4988496;28;20336;-82
2024/01/19 04:03:18;;;;;;;;;;;0.20;99.90;;;;;;4980845;28;19929;-83
2024/01/19 04:05:43;;;;;;;;;;;2.10;99.90;;;;;;5012689;28;19921;-83
2024/01/19 04:08:09;;;;;;;;;;;1.80;99.90;;;;;;5013168;28;19932;-83
2024/01/19 04:10:35;;;;;;;;;;;0.20;99.90;;;;;;5006518;28;19943;-84
2024/01/19 04:13:00;;;;;;;;;;;0.00;99.90;;;;;;4996747;28;19945;-83
2024/01/19 04:15:26;;;;;;;;;;;0.20;99.90;;;;;;4996264;28;20389;-83
2024/01/19 04:17:51;;;;;;;;;;;0.60;99.90;;;;;;4995153;28;19929;-83
2024/01/19 04:20:17;;;;;;;;;;;0.20;99.90;;;;;;4981725;28;19922;-83
2024/01/19 04:22:42;;;;;;;;;;;0.20;99.90;;;;;;4985212;28;19921;-83
2024/01/19 04:25:08;;;;;;;;;;;0.70;99.90;;;;;;4980098;28;19933;-83
2024/01/19 04:27:34;;;;;;;;;;;0.30;99.90;;;;;;4995001;28;20337;-83
2024/01/19 04:30:00;;;;;;;;;;;0.20;99.90;;;;;;4996832;28;19929;-83
2024/01/19 04:32:25;;;;;;;;;;;2.00;99.90;;;;;;4996530;28;20274;-83
2024/01/19 04:34:51;;;;;;;;;;;1.30;99.90;;;;;;4989113;28;19930;-84
2024/01/19 04:37:16;;;;;;;;;;;0.10;99.90;;;;;;4987937;28;19921;-82
2024/01/19 04:39:42;;;;;;;;;;;1.20;99.90;;;;;;5019424;28;19922;-82
2024/01/19 04:42:08;;;;;;;;;;;0.70;99.90;;;;;;4993050;28;20000;-83
2024/01/19 04:44:33;;;;;;;;;;;-0.10;99.90;;;;;;4995175;28;19948;-83
2024/01/19 04:46:59;;;;;;;;;;;1.30;99.90;;;;;;4983800;28;19926;-83
2024/01/19 04:49:25;;;;;;;;;;;1.70;99.90;;;;;;5013548;28;19926;-83
2024/01/19 04:51:50;;;;;;;;;;;1.50;99.90;;;;;;5004304;28;19921;-83
2024/01/19 04:54:16;;;;;;;;;;;1.60;99.90;;;;;;4997493;28;19969;-83
2024/01/19 04:56:41;;;;;;;;;;;0.10;99.90;;;;;;4995656;28;19929;-83
2024/01/19 04:59:07;;;;;;;;;;;-0.10;99.90;;;;;;4995250;28;19927;-83
2024/01/19 05:01:32;;;;;;;;;;;-0.40;99.90;;;;;;5012148;28;19968;-83
2024/01/19 05:03:58;;;;;;;;;;;0.10;99.90;;;;;;5014016;28;19926;-83
2024/01/19 05:06:23;;;;;;;;;;;-0.50;99.90;;;;;;5010448;28;19925;-83
2024/01/19 05:08:49;;;;;;;;;;;1.40;99.90;;;;;;4997511;28;19926;-83
2024/01/19 05:11:15;;;;;;;;;;;-0.40;99.90;;;;;;4968652;28;19922;-83
2024/01/19 05:13:41;;;;;;;;;;;0.40;99.90;;;;;;4974072;28;19922;-83
2024/01/19 05:16:07;;;;;;;;;;;0.80;99.90;;;;;;4971862;28;19922;-83
2024/01/19 05:18:33;;;;;;;;;;;0.80;99.90;;;;;;4984342;28;20324;-83
2024/01/19 05:20:59;;;;;;;;;;;0.40;99.90;;;;;;5015557;28;19922;-82
2024/01/19 05:23:24;;;;;;;;;;;1.50;99.90;;;;;;4998317;28;20020;-83
2024/01/19 05:25:50;;;;;;;;;;;1.30;99.90;;;;;;4993565;28;19921;-83
2024/01/19 05:28:15;;;;;;;;;;;-0.20;99.90;;;;;;4982655;28;20396;-83
2024/01/19 05:30:42;;;;;;;;;;;0.20;99.90;;;;;;4974291;28;20020;-82
2024/01/19 05:33:08;;;;;;;;;;;0.00;99.90;;;;;;5013304;28;20354;-83
2024/01/19 05:35:33;;;;;;;;;;;0.60;99.90;;;;;;4993205;28;19961;-83
2024/01/19 05:37:59;;;;;;;;;;;-0.20;99.90;;;;;;4998583;28;19921;-83
2024/01/19 05:40:25;;;;;;;;;;;0.30;99.90;;;;;;5007960;28;19976;-83
2024/01/19 05:42:50;;;;;;;;;;;-0.30;99.90;;;;;;4987718;28;19921;-83
2024/01/19 05:45:16;;;;;;;;;;;-0.20;99.90;;;;;;4982922;28;19922;-82
2024/01/19 05:47:41;;;;;;;;;;;0.20;99.90;;;;;;4983897;28;20013;-83
2024/01/19 05:50:07;;;;;;;;;;;1.30;99.90;;;;;;4998958;28;19922;-84
2024/01/19 05:52:33;;;;;;;;;;;-0.50;99.90;;;;;;4983041;28;19928;-83
2024/01/19 05:54:58;;;;;;;;;;;-0.50;99.90;;;;;;4982944;28;19925;-82
2024/01/19 05:57:24;;;;;;;;;;;1.00;99.90;;;;;;4998616;28;19936;-83
2024/01/19 05:59:50;;;;;;;;;;;-0.80;99.90;;;;;;4997724;28;20044;-83
2024/01/19 06:02:15;;;;;;;;;;;-0.50;99.90;;;;;;4984864;28;19925;-83
2024/01/19 06:04:41;;;;;;;;;;;0.90;99.90;;;;;;4974865;28;19968;-83
2024/01/19 06:07:07;;;;;;;;;;;1.30;99.90;;;;;;5003569;28;19985;-82
2024/01/19 06:09:32;;;;;;;;;;;-0.90;99.90;;;;;;4998785;28;19926;-83
2024/01/19 06:11:58;;;;;;;;;;;-0.80;99.90;;;;;;4996963;28;20024;-83
2024/01/19 06:14:24;;;;;;;;;;;1.30;99.90;;;;;;4963531;28;19969;-83
2024/01/19 06:16:50;;;;;;;;;;;0.60;99.90;;;;;;4962055;28;20329;-83
2024/01/19 06:19:15;;;;;;;;;;;0.00;99.90;;;;;;4978616;28;19928;-82
2024/01/19 06:21:47;;;;;;;;;;;0.80;99.90;;;;;;4985346;28;19928;-82
2024/01/19 06:24:16;;;;;;;;;;;-0.80;99.90;;;;;;4978640;28;19973;-82
2024/01/19 06:26:48;;;;;;;;;;;-0.80;99.90;;;;;;4962390;28;20009;-82
2024/01/19 06:29:16;;;;;;;;;;;-0.80;99.90;;;;;;4978975;28;20020;-82
2024/01/19 06:31:43;;;;;;;;;;;-0.90;99.90;;;;;;4978929;28;19922;-82
2024/01/19 06:34:09;;;;;;;;;;;-0.80;99.90;;;;;;5003241;28;19961;-83
2024/01/19 06:36:34;;;;;;;;;;;1.20;99.90;;;;;;5013492;28;19980;-83
2024/01/19 06:39:00;;;;;;;;;;;-0.90;99.90;;;;;;4999452;28;19921;-83
2024/01/19 06:41:26;;;;;;;;;;;-0.90;99.90;;;;;;4980720;28;20341;-83
2024/01/19 06:43:51;;;;;;;;;;;1.00;99.90;;;;;;4989341;28;19925;-83
2024/01/19 06:46:17;;;;;;;;;;;0.60;99.90;;;;;;4982849;28;19977;-83
2024/01/19 06:48:43;;;;;;;;;;;-1.00;99.90;;;;;;4982266;28;19979;-83
2024/01/19 06:51:15;;;;;;;;;;;-1.00;99.90;;;;;;5011267;28;20301;-83
2024/01/19 06:53:40;;;;;;;;;;;-1.00;99.90;;;;;;5008467;28;19921;-82
2024/01/19 06:56:06;;;;;;;;;;;-1.00;99.90;;;;;;4995180;28;20028;-85
2024/01/19 06:58:32;;;;;;;;;;;-1.00;99.90;;;;;;4996656;28;19926;-84
2024/01/19 07:00:57;;;;;;;;;;;-1.00;99.90;;;;;;4998048;28;19922;-84
2024/01/19 07:03:23;;;;;;;;;;;1.30;99.90;;;;;;5012747;28;19929;-84
2024/01/19 07:05:48;;;;;;;;;;;-0.80;99.90;;;;;;4990273;28;19926;-84
2024/01/19 07:08:14;;;;;;;;;;;-0.80;99.90;;;;;;4986888;28;20422;-84
2024/01/19 07:10:40;;;;;;;;;;;0.40;99.90;;;;;;4968809;28;19922;-83
2024/01/19 07:13:05;;;;;;;;;;;-0.80;99.90;;;;;;4995583;28;19921;-83
2024/01/19 07:15:31;;;;;;;;;;;-0.80;99.90;;;;;;4978960;28;20386;-84
2024/01/19 07:17:56;;;;;;;;;;;0.80;99.90;;;;;;4995466;28;19929;-83
2024/01/19 07:20:22;;;;;;;;;;;-0.70;99.90;;;;;;4979284;28;19926;-85
2024/01/19 07:22:49;;;;;;;;;;;1.10;99.90;;;;;;4980087;28;20274;-84
2024/01/19 07:25:14;;;;;;;;;;;-0.90;99.90;;;;;;5011767;28;19921;-84
2024/01/19 07:27:40;;;;;;;;;;;-0.60;99.90;;;;;;5013663;28;19926;-84
2024/01/19 07:30:06;;;;;;;;;;;1.40;99.90;;;;;;4992211;28;19925;-83
2024/01/19 07:32:31;;;;;;;;;;;-0.60;99.90;;;;;;4992519;28;19948;-83
2024/01/19 07:34:57;;;;;;;;;;;1.10;99.90;;;;;;5021390;28;19948;-83
2024/01/19 07:37:22;;;;;;;;;;;-0.50;99.90;;;;;;4996871;28;20008;-83
2024/01/19 07:39:48;;;;;;;;;;;0.60;99.90;;;;;;4998071;28;19925;-83
2024/01/19 07:42:14;;;;;;;;;;;0.00;99.90;;;;;;4987069;28;19972;-85
2024/01/19 07:44:39;;;;;;;;;;;-0.70;99.90;;;;;;4981817;28;19972;-84
2024/01/19 07:47:05;;;;;;;;;;;-0.60;99.90;;;;;;4993439;28;20006;-84
2024/01/19 07:49:30;;;;;;;;;;;-0.70;99.90;;;;;;5012575;28;19932;-84
2024/01/19 07:51:56;;;;;;;;;;;0.70;99.90;;;;;;4979754;28;20457;-84
2024/01/19 07:54:22;;;;;;;;;;;0.80;99.90;;;;;;5003561;28;19921;-84
2024/01/19 07:56:47;;;;;;;;;;;-0.80;99.90;;;;;;4997305;28;19968;-84
2024/01/19 07:59:13;;;;;;;;;;;-0.90;99.90;;;;;;5005162;28;19928;-85
2024/01/19 08:01:39;;;;;;;;;;;-1.80;99.90;;;;;;4998280;28;19968;-85
2024/01/19 08:04:05;;;;;;;;;;;-0.90;99.90;;;;;;5015236;28;19922;-84
2024/01/19 08:06:30;;;;;;;;;;;1.40;99.90;;;;;;5000839;28;19922;-86
2024/01/19 08:08:56;;;;;;;;;;;-1.00;99.90;;;;;;4985082;28;20037;-85
2024/01/19 08:11:22;;;;;;;;;;;0.10;99.90;;;;;;4986934;28;19928;-84
2024/01/19 08:13:47;;;;;;;;;;;-1.20;99.90;;;;;;4994384;28;19922;-84
2024/01/19 08:16:13;;;;;;;;;;;-1.20;99.90;;;;;;4978242;28;19926;-85
2024/01/19 08:18:39;;;;;;;;;;;-0.30;99.90;;;;;;4996322;28;19928;-85
2024/01/19 08:21:04;;;;;;;;;;;1.10;99.90;;;;;;4994516;28;20004;-84
2024/01/19 08:23:30;;;;;;;;;;;-0.90;99.90;;;;;;4995613;28;19921;-83
2024/01/19 08:25:56;;;;;;;;;;;-1.00;99.90;;;;;;4997559;28;20004;-82
2024/01/19 08:28:22;;;;;;;;;;;-0.90;99.90;;;;;;4996807;28;19972;-83
2024/01/19 08:30:48;;;;;;;;;;;-0.90;99.90;;;;;;4987227;28;19926;-84
2024/01/19 08:33:14;;;;;;;;;;;-0.80;99.90;;;;;;5011080;28;19933;-84
2024/01/19 08:35:40;;;;;;;;;;;0.20;99.90;;;;;;5012199;28;19921;-83
2024/01/19 08:38:05;;;;;;;;;;;-0.80;99.90;;;;;;4997138;28;19929;-83
2024/01/19 08:40:31;;;;;;;;;;;-0.60;99.90;;;;;;4999243;28;19928;-83
2024/01/19 08:42:57;;;;;;;;;;;0.60;99.90;;;;;;4965517;28;19929;-83
2024/01/19 08:45:22;;;;;;;;;;;-0.70;99.90;;;;;;4966176;28;19971;-83
2024/01/19 08:47:55;;;;;;;;;;;0.30;99.90;;;;;;4995829;28;19925;-84
2024/01/19 08:50:20;;;;;;;;;;;-0.50;99.90;;;;;;5018957;28;19930;-85
2024/01/19 08:52:46;;;;;;;;;;;-0.60;99.90;;;;;;5000681;28;20281;-85
2024/01/19 08:55:12;;;;;;;;;;;-0.60;99.90;;;;;;5000090;28;19921;-84
2024/01/19 08:57:37;;;;;;;;;;;1.60;99.90;;;;;;4999121;28;20020;-84
2024/01/19 09:00:04;;;;;;;;;;;-0.50;99.90;;;;;;4999493;28;19929;-85
2024/01/19 09:02:30;;;;;;;;;;;-0.40;99.90;;;;;;4995470;28;20120;-85
2024/01/19 09:04:55;;;;;;;;;;;1.40;99.90;;;;;;5018212;28;19921;-85
2024/01/19 09:07:21;;;;;;;;;;;2.00;99.90;;;;;;5000730;28;19922;-85
2024/01/19 09:09:47;;;;;;;;;;;1.60;99.90;;;;;;4996202;28;19980;-85
2024/01/19 09:12:12;;;;;;;;;;;1.40;99.90;;;;;;5003491;28;19928;-85
2024/01/19 09:14:38;;;;;;;;;;;1.30;99.90;;;;;;4985924;28;19928;-84
2024/01/19 09:17:04;;;;;;;;;;;0.20;99.90;;;;;;5010299;28;20001;-84
2024/01/19 09:19:30;;;;;;;;;;;2.10;99.90;;;;;;5009079;28;19922;-84
2024/01/19 09:21:55;;;;;;;;;;;0.60;99.90;;;;;;4999385;28;19922;-84
2024/01/19 09:24:21;;;;;;;;;;;1.70;99.90;;;;;;5000823;28;19925;-84
2024/01/19 09:26:46;;;;;;;;;;;2.30;99.90;;;;;;4991342;28;19972;-84
2024/01/19 09:29:12;;;;;;;;;;;2.20;99.90;;;;;;5000634;28;19925;-84
2024/01/19 09:31:44;;;;;;;;;;;3.00;99.90;;;;;;5013580;28;19928;-84
2024/01/19 09:34:10;;;;;;;;;;;1.00;99.90;;;;;;5016401;28;20280;-84
2024/01/19 09:36:37;;;;;;;;;;;2.20;99.90;;;;;;5015989;28;19922;-85
2024/01/19 09:39:03;;;;;;;;;;;3.30;99.90;;;;;;5012782;28;19905;-83
2024/01/19 09:41:36;;;;;;;;;;;2.90;99.90;;;;;;4997367;28;19925;-83
2024/01/19 09:44:05;;;;;;;;;;;2.00;99.90;;;;;;5016469;28;19921;-83
2024/01/19 09:46:35;;;;;;;;;;;3.90;99.90;;;;;;4985207;28;19921;-84
2024/01/19 09:49:10;;;;;;;;;;;2.10;99.90;;;;;;4997349;28;19926;-83
2024/01/19 09:51:45;;;;;;;;;;;1.80;99.90;;;;;;4995896;28;19928;-85
2024/01/19 09:54:14;;;;;;;;;;;1.90;99.90;;;;;;5013865;28;19929;-84
2024/01/19 09:56:40;;;;;;;;;;;2.90;99.90;;;;;;4985681;28;19926;-84
2024/01/19 09:59:07;;;;;;;;;;;2.10;99.90;;;;;;4976354;28;20262;-84
2024/01/19 10:01:33;;;;;;;;;;;4.20;99.90;;;;;;4995240;28;19921;-84
2024/01/19 10:04:04;;;;;;;;;;;3.80;99.90;;;;;;4996489;28;19930;-84
2024/01/19 10:06:29;;;;;;;;;;;3.40;99.90;;;;;;5012036;28;20008;-84
2024/01/19 10:08:55;;;;;;;;;;;3.90;99.90;;;;;;5004130;28;20377;-83
2024/01/19 10:11:21;;;;;;;;;;;4.20;99.90;;;;;;4984556;28;19922;-83
2024/01/19 10:13:47;;;;;;;;;;;4.70;99.90;;;;;;5005121;28;19922;-83
2024/01/19 10:16:12;;;;;;;;;;;4.50;99.90;;;;;;4994527;28;19961;-83
2024/01/19 10:18:38;;;;;;;;;;;5.20;99.90;;;;;;5000026;28;19929;-85
2024/01/19 10:21:05;;;;;;;;;;;3.80;99.90;;;;;;4990821;28;19984;-83
2024/01/19 10:23:30;;;;;;;;;;;3.00;99.90;;;;;;5014349;28;19922;-83
2024/01/19 10:26:11;;;;;;;;;;;3.20;99.90;;;;;;5009068;28;20385;-82
2024/01/19 10:28:36;;;;;;;;;;;4.70;99.90;;;;;;4997626;28;20374;-83
2024/01/19 10:31:15;;;;;;;;;;;3.70;99.90;;;;;;5019069;28;19968;-82
2024/01/19 10:33:48;;;;;;;;;;;3.50;99.90;;;;;;5017444;28;19921;-83
2024/01/19 10:36:13;;;;;;;;;;;3.70;99.90;;;;;;5014797;28;19969;-82
2024/01/19 10:38:39;;;;;;;;;;;3.80;99.90;;;;;;4979997;28;19929;-83
2024/01/19 10:41:13;;;;;;;;;;;4.00;99.90;;;;;;4979065;28;19922;-83
2024/01/19 10:43:38;;;;;;;;;;;4.00;99.90;;;;;;4998855;28;19921;-82
2024/01/19 10:46:17;;;;;;;;;;;4.50;99.90;;;;;;4998102;28;19928;-84
2024/01/19 10:48:46;;;;;;;;;;;3.80;99.90;;;;;;5014117;28;19932;-82
2024/01/19 10:51:13;;;;;;;;;;;5.20;99.90;;;;;;4981703;28;19925;-83
2024/01/19 10:53:38;;;;;;;;;;;5.00;99.90;;;;;;4994891;28;20289;-83
2024/01/19 10:56:04;;;;;;;;;;;5.10;99.90;;;;;;4980408;28;20000;-83
2024/01/19 10:58:33;;;;;;;;;;;4.30;99.90;;;;;;4995139;28;20024;-83
2024/01/19 11:01:12;;;;;;;;;;;4.10;99.90;;;;;;4978479;28;19926;-83
2024/01/19 11:03:38;;;;;;;;;;;4.40;99.90;;;;;;5002170;28;19968;-83
2024/01/19 11:06:04;;;;;;;;;;;4.60;99.90;;;;;;4997785;28;19921;-83
2024/01/19 11:08:31;;;;;;;;;;;4.40;99.90;;;;;;4979488;28;20332;-83
2024/01/19 11:10:57;;;;;;;;;;;4.30;99.90;;;;;;4995682;28;19922;-83
2024/01/19 11:13:24;;;;;;;;;;;3.90;99.90;;;;;;4978039;28;19976;-83
2024/01/19 11:15:53;;;;;;;;;;;3.70;99.90;;;;;;4978263;28;19928;-83
2024/01/19 11:18:19;;;;;;;;;;;4.00;99.90;;;;;;4994570;28;19926;-83
2024/01/19 11:20:45;;;;;;;;;;;4.70;99.90;;;;;;4971678;28;19921;-83
2024/01/19 11:23:11;;;;;;;;;;;6.40;99.90;;;;;;5012895;28;19922;-83
2024/01/19 11:25:46;;;;;;;;;;;4.60;99.90;;;;;;4994858;28;20023;-83
2024/01/19 11:28:20;;;;;;;;;;;5.00;99.90;;;;;;5014479;28;19931;-84
2024/01/19 11:31:02;;;;;;;;;;;6.00;99.90;;;;;;4992432;28;20322;-84
2024/01/19 11:33:34;;;;;;;;;;;6.70;99.90;;;;;;5002840;28;19925;-84
2024/01/19 11:35:59;;;;;;;;;;;7.20;99.90;;;;;;4980413;28;19980;-82
2024/01/19 11:38:44;;;;;;;;;;;7.50;99.90;;;;;;4961382;28;19969;-82
2024/01/19 11:41:29;;;;;;;;;;;7.60;99.90;;;;;;4974478;28;19921;-82
2024/01/19 11:43:54;;;;;;;;;;;7.20;99.90;;;;;;4994389;28;20357;-82
2024/01/19 11:46:39;;;;;;;;;;;7.10;99.90;;;;;;4984691;28;19928;-82
2024/01/19 11:49:05;;;;;;;;;;;7.30;99.90;;;;;;5013570;28;19925;-82
2024/01/19 11:51:32;;;;;;;;;;;7.00;99.90;;;;;;4995827;28;19922;-82
2024/01/19 11:54:01;;;;;;;;;;;7.30;99.90;;;;;;5004256;28;19972;-83
2024/01/19 11:56:27;;;;;;;;;;;7.80;99.90;;;;;;4997597;28;19921;-84
2024/01/19 11:58:53;;;;;;;;;;;7.90;99.90;;;;;;4998200;28;19932;-84
2024/01/19 12:01:19;;;;;;;;;;;8.00;99.90;;;;;;4975942;28;19926;-83
2024/01/19 12:03:45;;;;;;;;;;;7.90;99.90;;;;;;4999562;28;20162;-83
2024/01/19 12:06:14;;;;;;;;;;;8.00;99.90;;;;;;4995891;28;19945;-83
2024/01/19 12:08:40;;;;;;;;;;;8.00;99.90;;;;;;5013575;28;19933;-84
2024/01/19 12:11:10;;;;;;;;;;;7.50;99.90;;;;;;4991788;28;19921;-84
2024/01/19 12:13:37;;;;;;;;;;;6.60;99.90;;;;;;4996422;28;20019;-84
2024/01/19 12:16:04;;;;;;;;;;;6.20;99.90;;;;;;4989871;28;20016;-84
2024/01/19 12:18:30;;;;;;;;;;;6.10;99.90;;;;;;4988828;28;19922;-84
2024/01/19 12:20:56;;;;;;;;;;;6.60;99.90;;;;;;5007664;28;20032;-82
2024/01/19 12:23:22;;;;;;;;;;;6.10;99.90;;;;;;4993693;28;19969;-83
2024/01/19 12:25:47;;;;;;;;;;;5.90;99.90;;;;;;4995494;28;20400;-82
2024/01/19 12:28:15;;;;;;;;;;;6.00;99.90;;;;;;5012464;28;19933;-82
2024/01/19 12:30:42;;;;;;;;;;;5.90;99.90;;;;;;4994929;28;19921;-83
2024/01/19 12:33:21;;;;;;;;;;;6.00;99.90;;;;;;4980911;28;19999;-82
2024/01/19 12:35:47;;;;;;;;;;;5.80;99.90;;;;;;4999614;28;20016;-83
2024/01/19 12:38:14;;;;;;;;;;;5.60;99.90;;;;;;4993554;28;19961;-83
2024/01/19 12:40:40;;;;;;;;;;;5.30;99.90;;;;;;4996532;28;19929;-83
2024/01/19 12:43:06;;;;;;;;;;;5.00;99.90;;;;;;4973848;28;19921;-82
2024/01/19 12:45:32;;;;;;;;;;;4.80;99.90;;;;;;5007590;28;19922;-86
2024/01/19 12:47:59;;;;;;;;;;;4.70;99.90;;;;;;4977597;28;19926;-84
2024/01/19 12:50:34;;;;;;;;;;;5.30;99.90;;;;;;4987649;28;19964;-84
2024/01/19 12:53:00;;;;;;;;;;;4.80;99.90;;;;;;4994362;28;20372;-83
2024/01/19 12:55:29;;;;;;;;;;;5.00;99.90;;;;;;5002151;28;19961;-84
2024/01/19 12:57:55;;;;;;;;;;;5.80;99.90;;;;;;4993654;28;19926;-83
2024/01/19 13:00:24;;;;;;;;;;;5.70;99.90;;;;;;5006447;28;20373;-84
2024/01/19 13:02:53;;;;;;;;;;;6.00;99.90;;;;;;4994300;28;20385;-83
2024/01/19 13:05:20;;;;;;;;;;;6.30;99.90;;;;;;5008813;28;19930;-82
2024/01/19 13:07:46;;;;;;;;;;;6.20;99.90;;;;;;5013265;28;20329;-83
2024/01/19 13:10:15;;;;;;;;;;;5.90;99.90;;;;;;5007321;28;19921;-83
2024/01/19 13:12:41;;;;;;;;;;;6.60;99.90;;;;;;5006576;28;20305;-83
2024/01/19 13:15:08;;;;;;;;;;;6.00;99.90;;;;;;4980880;28;19922;-83
2024/01/19 13:17:34;;;;;;;;;;;6.20;99.90;;;;;;4996875;28;20385;-83
2024/01/19 13:20:03;;;;;;;;;;;6.40;99.90;;;;;;5011076;28;19925;-83
2024/01/19 13:22:29;;;;;;;;;;;6.30;99.90;;;;;;5000350;28;19932;-83
2024/01/19 13:24:54;;;;;;;;;;;6.10;99.90;;;;;;4980325;28;20012;-84
2024/01/19 13:27:20;;;;;;;;;;;6.30;99.90;;;;;;4994645;28;19927;-83
2024/01/19 13:29:46;;;;;;;;;;;6.10;99.90;;;;;;4999715;28;19926;-83
2024/01/19 13:32:12;;;;;;;;;;;6.20;99.90;;;;;;5016212;28;19921;-83
2024/01/19 13:34:38;;;;;;;;;;;6.80;99.90;;;;;;4998822;28;20021;-83
2024/01/19 13:37:04;;;;;;;;;;;6.40;99.90;;;;;;5016952;28;20348;-83
2024/01/19 13:39:29;;;;;;;;;;;6.80;99.90;;;;;;5012981;28;19957;-83
2024/01/19 13:41:56;;;;;;;;;;;6.80;99.90;;;;;;4995844;28;19922;-83
2024/01/19 13:44:22;;;;;;;;;;;6.80;99.90;;;;;;5015975;28;19922;-83
2024/01/19 13:46:48;;;;;;;;;;;6.10;99.90;;;;;;5015252;28;20258;-83
2024/01/19 13:49:13;;;;;;;;;;;6.70;99.90;;;;;;4996686;28;19933;-83
2024/01/19 13:51:39;;;;;;;;;;;6.60;99.90;;;;;;5016800;28;19988;-83
2024/01/19 13:54:04;;;;;;;;;;;6.80;99.90;;;;;;5016301;28;19926;-83
2024/01/19 13:56:30;;;;;;;;;;;6.60;99.90;;;;;;4982327;28;19922;-84
2024/01/19 13:58:55;;;;;;;;;;;6.70;99.90;;;;;;4966190;28;20017;-83
2024/01/19 14:01:21;;;;;;;;;;;7.00;99.90;;;;;;4996862;28;19957;-83
2024/01/19 14:03:48;;;;;;;;;;;7.50;99.90;;;;;;5008500;28;20342;-83
2024/01/19 14:06:14;;;;;;;;;;;8.10;99.90;;;;;;5014195;28;20247;-83
2024/01/19 14:08:40;;;;;;;;;;;8.60;99.90;;;;;;4998901;28;19925;-83
2024/01/19 14:11:06;;;;;;;;;;;9.20;99.90;;;;;;4999247;28;19922;-84
2024/01/19 14:13:32;;;;;;;;;;;9.10;99.90;;;;;;4995511;28;19922;-84
2024/01/19 14:15:59;;;;;;;;;;;8.70;99.90;;;;;;5015372;28;19968;-84
2024/01/19 14:18:24;;;;;;;;;;;8.20;99.90;;;;;;5013602;28;19972;-83
2024/01/19 14:20:50;;;;;;;;;;;7.80;99.90;;;;;;4989909;28;19922;-83